Terminal Aerodrome Forecast
Issued by NWS

Home | Current Version | Previous Version | Text Only | Print | Product List | Glossary On
Versions: 1 2 3 4 5 6 7 8 9 10 11 12 13 14 15 16 17 18 19 20 21 22
000
FTUS43 KGRB 291132
TAFCWA
TAF
KCWA 291132Z 2912/3012 22007KT P6SM BKN012 BKN040
      TEMPO 2912/2914 4SM -SHRA BR BKN007
     FM291400 25010G16KT P6SM SCT015 OVC025
      TEMPO 2914/2918 -SHRA BKN015
     FM292000 27012G18KT P6SM BKN035
     FM300100 28006KT P6SM SCT035=

USA.gov is the U.S. government's official web portal to all federal, state and local government web resources and services.